KPIT/PIT METAR and TAF weather

Enter ICAO airport designator
Station Type Date Time Source
KPIT METAR 2021/07/29 18:29 UTC NOAA

KPIT 291829Z 23013KT 10SM BKN014 BKN110 26/21 A2987 RMK AO2 T02560211


Station Type Date Time Source
KPIT Decoded METAR 2021/07/29 18:29 UTC NOAA

GREATER PITTSBURGH INTERNATIONAL , PA, United States (KPIT) 40-29N 80-14W 357M
Jul 29, 2021 - 02:29 PM EDT / 2021.07.29 1829 UTC
Wind: from the SW (230 degrees) at 15 MPH (13 KT):0
Visibility: 10 mile(s):0
Sky conditions: mostly cloudy
Temperature: 78.1 F (25.6 C)
Dew Point: 70.0 F (21.1 C)
Relative Humidity: 76%
Pressure (altimeter): 29.87 in. Hg (1011 hPa)
ob: KPIT 291829Z 23013KT 10SM BKN014 BKN110 26/21 A2987 RMK AO2 T02560211
cycle: 18

Station Type Date Time Source
KPIT TAF 2021/07/29 18:30 UTC NOAA

TAF KPIT 291729Z 2918/3024 22011KT P6SM BKN045
FM292000 25010G21KT P6SM VCTS BKN050CB
TEMPO 2921/2923 4SM -TSRA OVC035CB
FM300200 29006KT P6SM BKN040
FM301000 32007KT P6SM BKN015
FM301400 33007KT P6SM SCT025

Example: see airport list